< < Back
Terminal Aerodrome Forecast


Current Version              Previous Versions:   1  2  3  4  5  6  7  8  9  

Terminal Aerodrome Forecast

287
FTUS44 KBMX 282300
TAFMGM
TAF
KMGM 282333Z 2900/2924 29009KT P6SM SCT050
     FM290200 33005KT P6SM SKC
     FM291500 33010KT P6SM SKC=

Latest METAR

659
SAUS80 KWBC 291500
MTRMGM
METAR KMGM 291453Z 33006KT 10SM CLR 28/16 A3004 RMK AO2 SLP171 T02830161
51014


USA.gov is the U.S. government's official web portal to all federal, state and local government web resources and services.